HCMM

Aden Adde International Airport

Mogadishu, Somalia
METAR HCMM 191100Z 09012KT 9999 SCT024 30/23 Q1008
Observed Flight Rules
Dec-19 @ 11:00 UTC (54 minutes ago) Visual Flight Rules
Wind Visibility Clouds
90° at 12 knots 10,000+ meters
  • Scattered at 2,400' AGL
Temperatures Readings
Current 30°C / 86°F
Dewpoint 23°C / 73°F
Humidity 66%
Altimeter 29.76" Hg
Pressure 1008 hPa
Elevation 9
METAR HCMM 191100Z 09012KT 9999 SCT024 30/23 Q1008
Observed Flight Rules
Dec-19 @ 11:00 UTC
(54 minutes ago)
VFR
Wind Visibility
90° at 12 knots 10,000+ meters
Clouds
  • Scattered at 2,400' AGL
Temperature Dewpoint
30°C / 86°F 23°C / 73°F
Humidity Altimeter Pressure
66% 29.76" Hg 1008 hPa